Airport View

Enter AWOS ICAO identifier for current METAR.

ex. KFNL

KALM 181115Z AUTO 35011KT 10SM CLR 04/M04 A3025 RMK AO2

18 Jan 2020 11:23

Frequency: 127.825

Phone: 575-439-4112

Other Area AWOS: KHMN - KSRR - KLRU - KBIF

TAF KHMN 180100Z 1801/1907 VRB06KT 9999 FEW200 QNH3006INS BECMG 1806/1807 03012KT 9999 SKC QNH3007INS BECMG 1810/1811 VRB06KT 9999 SKC QNH3005INS TX14/1801Z TNM01/1814Z LAST NO AMDS AFT 1806 NEXT 2109